Time;durP1;ratioP1;P1;durP2;ratioP2;P2;SDS_P1;SDS_P2;PMS_P1;PMS_P2;Temp;Humidity;BMP_temperature;BMP_pressure;BME280_temperature;BME280_humidity;BME280_pressure;Samples;Min_cycle;Max_cycle;Signal;HPM_P1;HPM_P2
2021/07/04 00:02:01;;;;;;;16.27;14.87;;;;;;;;;;5073058;28;24868;-57
2021/07/04 00:04:26;;;;;;;16.13;15.00;;;;;;;;;;5067237;28;24418;-57
2021/07/04 00:06:51;;;;;;;17.23;15.93;;;;;;;;;;5068720;28;24411;-57
2021/07/04 00:09:17;;;;;;;16.20;15.00;;;;;;;;;;5083589;28;24456;-57
2021/07/04 00:11:42;;;;;;;16.77;15.40;;;;;;;;;;5067554;28;24443;-57
2021/07/04 00:14:07;;;;;;;16.80;15.60;;;;;;;;;;5074522;28;24576;-57
2021/07/04 00:16:32;;;;;;;14.70;13.60;;;;;;;;;;5074116;28;24987;-58
2021/07/04 00:18:57;;;;;;;13.50;12.50;;;;;;;;;;5067381;28;24482;-58
2021/07/04 00:21:23;;;;;;;14.40;13.40;;;;;;;;;;5067242;28;24896;-57
2021/07/04 00:23:48;;;;;;;14.07;13.00;;;;;;;;;;5080070;28;24421;-57
2021/07/04 00:26:14;;;;;;;13.50;12.50;;;;;;;;;;5068303;28;24526;-57
2021/07/04 00:28:39;;;;;;;15.35;14.15;;;;;;;;;;5066521;28;24423;-57
2021/07/04 00:31:04;;;;;;;14.90;13.70;;;;;;;;;;5067195;28;24411;-57
2021/07/04 00:33:29;;;;;;;12.73;11.82;;;;;;;;;;5067702;28;24418;-57
2021/07/04 00:35:54;;;;;;;13.57;12.47;;;;;;;;;;5066830;28;24522;-57
2021/07/04 00:38:20;;;;;;;13.30;12.30;;;;;;;;;;5072281;28;24414;-57
2021/07/04 00:40:45;;;;;;;15.90;14.70;;;;;;;;;;5065839;28;24821;-57
2021/07/04 00:43:10;;;;;;;15.00;13.90;;;;;;;;;;5077311;28;24410;-57
2021/07/04 00:45:35;;;;;;;11.97;11.07;;;;;;;;;;5067685;28;24410;-57
2021/07/04 00:48:01;;;;;;;13.70;12.80;;;;;;;;;;5067217;28;24552;-57
2021/07/04 00:50:28;;;;;;;13.43;12.43;;;;;;;;;;5077963;28;25001;-57
2021/07/04 00:52:54;;;;;;;13.43;12.43;;;;;;;;;;5069847;28;24607;-57
2021/07/04 00:55:20;;;;;;;11.90;10.90;;;;;;;;;;5066834;28;24503;-57
2021/07/04 00:57:45;;;;;;;12.40;11.50;;;;;;;;;;5066834;28;24836;-56
2021/07/04 01:00:12;;;;;;;11.73;10.93;;;;;;;;;;5066299;28;24952;-57
2021/07/04 01:02:38;;;;;;;13.70;12.70;;;;;;;;;;5065953;28;24777;-57
2021/07/04 01:05:26;;;;;;;14.03;13.03;;;;;;;;;;5068494;28;25364;-58
2021/07/04 01:07:51;;;;;;;11.93;10.98;;;;;;;;;;5058356;28;24514;-57
2021/07/04 01:10:18;;;;;;;13.33;12.33;;;;;;;;;;5066683;28;25051;-57
2021/07/04 01:12:45;;;;;;;13.00;11.80;;;;;;;;;;5066679;28;24449;-57
2021/07/04 01:15:11;;;;;;;13.35;12.45;;;;;;;;;;5070327;28;24518;-57
2021/07/04 01:17:37;;;;;;;13.03;12.03;;;;;;;;;;5066446;28;25071;-57
2021/07/04 01:20:05;;;;;;;12.32;11.45;;;;;;;;;;5068129;28;24972;-58
2021/07/04 01:22:30;;;;;;;13.82;12.73;;;;;;;;;;5066757;28;24852;-57
2021/07/04 01:24:56;;;;;;;12.60;11.70;;;;;;;;;;5066266;28;25031;-57
2021/07/04 01:27:21;;;;;;;14.30;13.30;;;;;;;;;;5066281;28;24444;-57
2021/07/04 01:29:46;;;;;;;11.90;11.00;;;;;;;;;;5066462;28;24498;-57
2021/07/04 01:32:11;;;;;;;11.40;10.50;;;;;;;;;;5066280;28;24963;-57
2021/07/04 01:34:37;;;;;;;12.97;11.97;;;;;;;;;;5067986;28;24792;-57
2021/07/04 01:37:02;;;;;;;13.87;12.77;;;;;;;;;;5076792;28;24473;-57
2021/07/04 01:39:28;;;;;;;12.50;11.70;;;;;;;;;;5079264;28;24414;-56
2021/07/04 01:41:53;;;;;;;12.80;11.90;;;;;;;;;;5081495;28;24449;-56
2021/07/04 01:44:18;;;;;;;13.87;12.77;;;;;;;;;;5080683;28;24463;-57
2021/07/04 01:46:43;;;;;;;13.40;12.30;;;;;;;;;;5074592;28;24403;-56
2021/07/04 01:49:09;;;;;;;11.40;10.60;;;;;;;;;;5067259;28;24894;-56
2021/07/04 01:51:34;;;;;;;11.80;10.90;;;;;;;;;;5066495;28;25146;-57
2021/07/04 01:53:59;;;;;;;12.80;11.90;;;;;;;;;;5083486;28;24410;-56
2021/07/04 01:56:24;;;;;;;12.37;11.47;;;;;;;;;;5080663;28;24431;-57
2021/07/04 01:58:49;;;;;;;14.32;13.23;;;;;;;;;;5066249;28;24525;-57
2021/07/04 02:01:14;;;;;;;12.60;11.70;;;;;;;;;;5070828;28;24417;-57
2021/07/04 02:03:40;;;;;;;12.20;11.30;;;;;;;;;;5079141;28;25111;-57
2021/07/04 02:06:05;;;;;;;12.60;11.70;;;;;;;;;;5079784;28;24418;-56
2021/07/04 02:08:30;;;;;;;13.60;12.57;;;;;;;;;;5085240;28;24959;-56
2021/07/04 02:10:55;;;;;;;12.00;11.20;;;;;;;;;;5068445;28;24415;-56
2021/07/04 02:13:20;;;;;;;12.30;11.40;;;;;;;;;;5065362;28;24501;-56
2021/07/04 02:15:45;;;;;;;11.50;10.70;;;;;;;;;;5066336;28;24458;-56
2021/07/04 02:18:12;;;;;;;12.33;11.53;;;;;;;;;;5079834;28;24416;-56
2021/07/04 02:20:48;;;;;;;13.10;12.13;;;;;;;;;;5070597;28;24414;-57
2021/07/04 02:23:32;;;;;;;12.60;11.70;;;;;;;;;;5065974;28;24421;-57
2021/07/04 02:25:58;;;;;;;11.90;11.10;;;;;;;;;;5065552;28;24410;-56
2021/07/04 02:28:24;;;;;;;14.80;13.70;;;;;;;;;;5076397;28;24909;-56
2021/07/04 02:30:50;;;;;;;14.70;13.60;;;;;;;;;;5067546;28;24887;-57
2021/07/04 02:33:16;;;;;;;13.65;12.65;;;;;;;;;;5069488;28;24411;-56
2021/07/04 02:35:43;;;;;;;13.80;12.60;;;;;;;;;;5069083;28;24410;-56
2021/07/04 02:38:08;;;;;;;12.88;11.98;;;;;;;;;;5069611;28;25042;-56
2021/07/04 02:40:34;;;;;;;13.20;12.20;;;;;;;;;;5073258;28;25097;-56
2021/07/04 02:42:59;;;;;;;12.05;11.15;;;;;;;;;;5084367;28;25062;-56
2021/07/04 02:45:25;;;;;;;13.60;12.50;;;;;;;;;;5068779;28;24414;-56
2021/07/04 02:47:50;;;;;;;15.30;14.20;;;;;;;;;;5072959;28;24963;-56
2021/07/04 02:50:20;;;;;;;13.63;12.63;;;;;;;;;;5071978;28;24564;-56
2021/07/04 02:52:46;;;;;;;13.57;12.57;;;;;;;;;;5075042;28;24460;-56
2021/07/04 02:55:11;;;;;;;12.20;11.30;;;;;;;;;;5088949;28;24487;-56
2021/07/04 02:57:36;;;;;;;12.70;11.80;;;;;;;;;;5073650;28;24864;-56
2021/07/04 03:00:04;;;;;;;12.70;11.80;;;;;;;;;;5069458;28;25019;-56
2021/07/04 03:02:29;;;;;;;12.13;10.98;;;;;;;;;;5073601;28;24799;-56
2021/07/04 03:04:54;;;;;;;13.05;11.95;;;;;;;;;;5080012;28;24433;-57
2021/07/04 03:07:19;;;;;;;14.17;13.17;;;;;;;;;;5069481;28;24440;-56
2021/07/04 03:09:44;;;;;;;12.80;11.90;;;;;;;;;;5068670;28;24431;-57
2021/07/04 03:12:10;;;;;;;12.40;11.50;;;;;;;;;;5074412;28;24509;-57
2021/07/04 03:14:35;;;;;;;13.20;12.30;;;;;;;;;;5068880;28;24667;-57
2021/07/04 03:17:00;;;;;;;13.70;12.70;;;;;;;;;;5068799;28;24921;-56
2021/07/04 03:19:25;;;;;;;14.87;13.67;;;;;;;;;;5080351;28;24426;-56
2021/07/04 03:21:50;;;;;;;11.90;11.10;;;;;;;;;;5087120;28;24414;-57
2021/07/04 03:24:16;;;;;;;11.80;10.90;;;;;;;;;;5068910;28;24429;-60
2021/07/04 03:26:41;;;;;;;12.45;11.55;;;;;;;;;;5068402;28;24489;-56
2021/07/04 03:29:06;;;;;;;12.90;11.90;;;;;;;;;;5076225;28;24418;-56
2021/07/04 03:31:31;;;;;;;13.33;12.30;;;;;;;;;;5075885;28;24426;-56
2021/07/04 03:33:56;;;;;;;13.20;12.10;;;;;;;;;;5086198;28;24670;-56
2021/07/04 03:36:22;;;;;;;13.00;12.10;;;;;;;;;;5068411;28;24430;-57
2021/07/04 03:38:47;;;;;;;12.10;11.30;;;;;;;;;;5068753;28;24556;-56
2021/07/04 03:41:12;;;;;;;11.52;10.73;;;;;;;;;;5087883;28;24575;-56
2021/07/04 03:43:37;;;;;;;12.73;11.63;;;;;;;;;;5072947;28;24944;-56
2021/07/04 03:46:02;;;;;;;10.93;10.13;;;;;;;;;;5085233;28;24971;-56
2021/07/04 03:48:27;;;;;;;11.55;10.65;;;;;;;;;;5068110;28;24415;-57
2021/07/04 03:50:53;;;;;;;11.43;10.63;;;;;;;;;;5073063;28;24427;-56
2021/07/04 03:53:18;;;;;;;10.30;9.50;;;;;;;;;;5067682;28;24861;-56
2021/07/04 03:55:43;;;;;;;9.80;9.10;;;;;;;;;;5067261;28;24435;-56
2021/07/04 03:58:08;;;;;;;11.20;10.40;;;;;;;;;;5067162;28;24427;-56
2021/07/04 04:00:33;;;;;;;11.10;10.30;;;;;;;;;;5068386;28;24577;-56
2021/07/04 04:02:58;;;;;;;11.37;10.50;;;;;;;;;;5068035;28;24419;-56
2021/07/04 04:05:23;;;;;;;9.13;8.43;;;;;;;;;;5067599;28;25037;-57
2021/07/04 04:07:49;;;;;;;10.00;9.20;;;;;;;;;;5068040;28;24417;-56
2021/07/04 04:10:14;;;;;;;11.87;11.07;;;;;;;;;;5066982;28;24430;-57
2021/07/04 04:12:39;;;;;;;10.02;9.32;;;;;;;;;;5072525;28;24485;-57
2021/07/04 04:15:06;;;;;;;11.63;10.83;;;;;;;;;;5081145;28;24421;-56
2021/07/04 04:17:31;;;;;;;11.02;10.23;;;;;;;;;;5073446;28;24637;-56
2021/07/04 04:19:57;;;;;;;11.70;10.90;;;;;;;;;;5078283;28;24768;-57
2021/07/04 04:22:23;;;;;;;11.10;10.30;;;;;;;;;;5067011;28;24513;-57
2021/07/04 04:24:48;;;;;;;10.98;9.98;;;;;;;;;;5067182;28;24814;-57
2021/07/04 04:27:14;;;;;;;10.97;10.17;;;;;;;;;;5066820;28;24987;-56
2021/07/04 04:29:39;;;;;;;11.40;10.60;;;;;;;;;;5071877;28;24422;-56
2021/07/04 04:32:05;;;;;;;9.80;9.10;;;;;;;;;;5083436;28;24979;-56
2021/07/04 04:34:30;;;;;;;10.00;9.20;;;;;;;;;;5066999;28;24488;-57
2021/07/04 04:36:55;;;;;;;9.50;8.90;;;;;;;;;;5066783;28;24423;-57
2021/07/04 04:39:20;;;;;;;10.80;9.80;;;;;;;;;;5076020;28;24472;-57
2021/07/04 04:41:46;;;;;;;10.60;9.90;;;;;;;;;;5077219;28;24411;-56
2021/07/04 04:44:12;;;;;;;9.45;8.75;;;;;;;;;;5066971;28;25296;-57
2021/07/04 04:46:37;;;;;;;9.60;8.90;;;;;;;;;;5078066;28;24426;-56
2021/07/04 04:49:02;;;;;;;9.90;9.17;;;;;;;;;;5084904;28;25044;-56
2021/07/04 04:51:27;;;;;;;9.80;9.00;;;;;;;;;;5073588;28;24422;-56
2021/07/04 04:53:53;;;;;;;9.30;8.60;;;;;;;;;;5065648;28;25175;-57
2021/07/04 04:56:18;;;;;;;9.37;8.67;;;;;;;;;;5069791;28;24501;-56
2021/07/04 04:58:43;;;;;;;9.00;8.30;;;;;;;;;;5084795;28;24418;-56
2021/07/04 05:01:09;;;;;;;8.70;8.10;;;;;;;;;;5080411;28;24407;-57
2021/07/04 05:03:34;;;;;;;9.70;9.00;;;;;;;;;;5066814;28;24449;-56
2021/07/04 05:05:59;;;;;;;8.60;8.00;;;;;;;;;;5065758;28;24418;-56
2021/07/04 05:08:25;;;;;;;8.70;8.10;;;;;;;;;;5066486;28;24435;-56
2021/07/04 05:10:51;;;;;;;9.35;8.75;;;;;;;;;;5066520;28;24390;-57
2021/07/04 05:13:17;;;;;;;9.40;8.70;;;;;;;;;;5083812;28;24418;-57
2021/07/04 05:15:42;;;;;;;9.00;8.30;;;;;;;;;;5085953;28;24436;-57
2021/07/04 05:18:07;;;;;;;9.50;8.77;;;;;;;;;;5075809;28;24501;-56
2021/07/04 05:20:32;;;;;;;9.40;8.60;;;;;;;;;;5066108;28;25029;-57
2021/07/04 05:22:58;;;;;;;8.50;7.90;;;;;;;;;;5066423;28;24486;-56
2021/07/04 05:25:23;;;;;;;9.40;8.50;;;;;;;;;;5079378;28;24409;-57
2021/07/04 05:27:48;;;;;;;8.20;7.70;;;;;;;;;;5086754;28;24456;-57
2021/07/04 05:30:13;;;;;;;8.65;8.00;;;;;;;;;;5084551;28;24421;-57
2021/07/04 05:32:39;;;;;;;11.60;7.78;;;;;;;;;;5085620;28;24430;-58
2021/07/04 05:35:04;;;;;;;7.57;7.07;;;;;;;;;;5084462;28;25028;-57
2021/07/04 05:37:29;;;;;;;7.90;7.40;;;;;;;;;;5085289;28;24483;-58
2021/07/04 05:39:56;;;;;;;7.70;7.27;;;;;;;;;;5067115;28;24410;-56
2021/07/04 05:42:21;;;;;;;7.65;6.95;;;;;;;;;;5077534;28;24410;-57
2021/07/04 05:44:47;;;;;;;7.95;7.45;;;;;;;;;;5066273;28;24487;-57
2021/07/04 05:47:12;;;;;;;7.40;6.90;;;;;;;;;;5071528;28;24486;-57
2021/07/04 05:49:38;;;;;;;7.70;7.20;;;;;;;;;;5067158;28;24474;-56
2021/07/04 05:52:04;;;;;;;7.53;7.03;;;;;;;;;;5066296;28;25063;-57
2021/07/04 05:54:30;;;;;;;8.38;7.68;;;;;;;;;;5065218;28;24816;-57
2021/07/04 05:56:55;;;;;;;7.75;7.15;;;;;;;;;;5065812;28;25154;-57
2021/07/04 05:59:20;;;;;;;8.60;7.80;;;;;;;;;;5080788;28;24418;-57
2021/07/04 06:01:47;;;;;;;8.17;7.67;;;;;;;;;;5072770;28;24447;-57
2021/07/04 06:04:12;;;;;;;8.10;7.60;;;;;;;;;;5071090;28;24414;-58
2021/07/04 06:06:37;;;;;;;8.10;7.50;;;;;;;;;;5069059;28;24505;-56
2021/07/04 06:09:02;;;;;;;8.20;7.60;;;;;;;;;;5071059;28;24497;-56
2021/07/04 06:11:28;;;;;;;9.40;8.60;;;;;;;;;;5075242;28;24429;-56
2021/07/04 06:13:53;;;;;;;8.80;8.10;;;;;;;;;;5076611;28;25038;-56
2021/07/04 06:16:18;;;;;;;8.20;7.50;;;;;;;;;;5069003;28;24419;-56
2021/07/04 06:18:43;;;;;;;8.30;7.80;;;;;;;;;;5069956;28;24571;-57
2021/07/04 06:21:08;;;;;;;8.35;7.85;;;;;;;;;;5070440;28;24956;-57
2021/07/04 06:23:34;;;;;;;7.70;7.20;;;;;;;;;;5069666;28;24780;-57
2021/07/04 06:25:59;;;;;;;7.87;7.30;;;;;;;;;;5080358;28;24516;-57
2021/07/04 06:28:24;;;;;;;8.00;7.50;;;;;;;;;;5072945;28;24422;-58
2021/07/04 06:30:49;;;;;;;7.85;7.35;;;;;;;;;;5075102;28;24429;-57
2021/07/04 06:33:14;;;;;;;8.23;7.63;;;;;;;;;;5080225;28;24406;-58
2021/07/04 06:35:39;;;;;;;8.40;7.90;;;;;;;;;;5080972;28;24506;-58
2021/07/04 06:38:05;;;;;;;8.63;8.03;;;;;;;;;;5080732;28;24781;-57
2021/07/04 06:40:30;;;;;;;8.23;7.63;;;;;;;;;;5074801;28;24422;-58
2021/07/04 06:42:55;;;;;;;7.90;7.40;;;;;;;;;;5072592;28;24928;-57
2021/07/04 06:45:20;;;;;;;8.17;7.67;;;;;;;;;;5087063;28;24492;-57
2021/07/04 06:47:46;;;;;;;8.97;8.27;;;;;;;;;;5079518;28;24430;-57
2021/07/04 06:50:12;;;;;;;9.25;8.55;;;;;;;;;;5081226;28;25046;-57
2021/07/04 06:52:38;;;;;;;8.00;7.40;;;;;;;;;;5087563;28;24421;-57
2021/07/04 06:55:04;;;;;;;8.90;8.20;;;;;;;;;;5075385;28;24843;-57
2021/07/04 06:57:29;;;;;;;9.50;8.68;;;;;;;;;;5082614;28;24537;-57
2021/07/04 07:00:03;;;;;;;9.23;8.43;;;;;;;;;;5080721;28;24510;-57
2021/07/04 07:02:29;;;;;;;8.18;7.68;;;;;;;;;;5068767;28;24427;-57
2021/07/04 07:04:54;;;;;;;8.40;7.80;;;;;;;;;;5081357;28;24450;-57
2021/07/04 07:07:20;;;;;;;8.60;8.00;;;;;;;;;;5081818;28;24513;-57
2021/07/04 07:09:45;;;;;;;8.30;7.80;;;;;;;;;;5079816;28;24460;-57
2021/07/04 07:12:10;;;;;;;8.90;8.30;;;;;;;;;;5073517;28;24415;-58
2021/07/04 07:14:35;;;;;;;9.00;8.40;;;;;;;;;;5086236;28;24488;-57
2021/07/04 07:17:01;;;;;;;9.10;8.50;;;;;;;;;;5081108;28;24431;-57
2021/07/04 07:19:26;;;;;;;8.60;8.05;;;;;;;;;;5068711;28;25106;-57
2021/07/04 07:21:51;;;;;;;8.60;8.00;;;;;;;;;;5070003;28;24429;-57
2021/07/04 07:24:16;;;;;;;8.15;7.55;;;;;;;;;;5067695;28;24403;-57
2021/07/04 07:26:41;;;;;;;8.33;7.73;;;;;;;;;;5069491;28;24976;-57
2021/07/04 07:29:06;;;;;;;8.40;7.80;;;;;;;;;;5076118;28;24395;-57
2021/07/04 07:31:35;;;;;;;7.80;7.30;;;;;;;;;;5084261;28;24475;-57
2021/07/04 07:34:00;;;;;;;8.48;7.97;;;;;;;;;;5074615;28;24410;-57
2021/07/04 07:36:26;;;;;;;9.13;8.53;;;;;;;;;;5079593;28;24429;-57
2021/07/04 07:38:51;;;;;;;8.80;8.10;;;;;;;;;;5080743;28;24459;-57
2021/07/04 07:41:16;;;;;;;7.53;6.93;;;;;;;;;;5074621;28;24425;-56
2021/07/04 07:43:43;;;;;;;7.50;7.00;;;;;;;;;;5076543;28;24406;-57
2021/07/04 07:46:09;;;;;;;7.68;7.18;;;;;;;;;;5075758;28;24464;-58
2021/07/04 07:48:34;;;;;;;6.50;6.00;;;;;;;;;;5075488;28;24414;-57
2021/07/04 07:50:59;;;;;;;8.00;7.40;;;;;;;;;;5071874;28;24428;-57
2021/07/04 07:53:24;;;;;;;7.40;6.90;;;;;;;;;;5087831;28;24478;-57
2021/07/04 07:55:49;;;;;;;7.40;6.80;;;;;;;;;;5087645;28;24418;-57
2021/07/04 07:58:15;;;;;;;6.88;6.28;;;;;;;;;;5079624;28;24589;-57
2021/07/04 08:00:40;;;;;;;8.20;7.40;;;;;;;;;;5080146;28;25080;-57
2021/07/04 08:03:05;;;;;;;7.15;6.65;;;;;;;;;;5087530;28;24398;-57
2021/07/04 08:05:30;;;;;;;6.97;6.47;;;;;;;;;;5087281;28;24376;-57
2021/07/04 08:07:56;;;;;;;7.88;7.38;;;;;;;;;;5087306;28;24928;-57
2021/07/04 08:10:21;;;;;;;6.80;6.40;;;;;;;;;;5083741;28;24436;-57
2021/07/04 08:12:46;;;;;;;7.53;7.03;;;;;;;;;;5087016;28;24781;-57
2021/07/04 08:15:12;;;;;;;6.65;6.25;;;;;;;;;;5087090;28;24962;-58
2021/07/04 08:17:37;;;;;;;6.45;6.05;;;;;;;;;;5085659;28;24440;-57
2021/07/04 08:20:04;;;;;;;5.80;5.40;;;;;;;;;;5078875;28;24410;-57
2021/07/04 08:22:29;;;;;;;6.57;6.18;;;;;;;;;;5079109;28;24452;-58
2021/07/04 08:24:54;;;;;;;6.90;6.40;;;;;;;;;;5067119;28;24387;-57
2021/07/04 08:27:19;;;;;;;6.57;6.07;;;;;;;;;;5067244;28;24395;-57
2021/07/04 08:29:44;;;;;;;6.20;5.80;;;;;;;;;;5067793;28;24418;-57
2021/07/04 08:32:10;;;;;;;6.65;6.25;;;;;;;;;;5066953;28;24931;-58
2021/07/04 08:34:35;;;;;;;6.32;5.93;;;;;;;;;;5084459;28;24504;-57
2021/07/04 08:37:00;;;;;;;5.27;4.97;;;;;;;;;;5086954;28;24414;-58
2021/07/04 08:39:25;;;;;;;5.75;5.35;;;;;;;;;;5087059;28;24418;-58
2021/07/04 08:41:50;;;;;;;6.40;6.00;;;;;;;;;;5084855;28;24414;-57
2021/07/04 08:44:15;;;;;;;6.00;5.60;;;;;;;;;;5085020;28;24424;-58
2021/07/04 08:46:41;;;;;;;6.53;5.70;;;;;;;;;;5086846;28;24391;-58
2021/07/04 08:49:07;;;;;;;5.90;5.50;;;;;;;;;;5084041;28;24418;-57
2021/07/04 08:51:33;;;;;;;5.43;5.13;;;;;;;;;;5066311;28;24421;-58
2021/07/04 08:53:58;;;;;;;5.60;5.30;;;;;;;;;;5066295;28;24440;-58
2021/07/04 08:56:23;;;;;;;5.57;5.20;;;;;;;;;;5080301;28;24437;-57
2021/07/04 08:58:48;;;;;;;5.90;5.50;;;;;;;;;;5086781;28;24983;-57
2021/07/04 09:01:16;;;;;;;5.13;4.82;;;;;;;;;;5084284;28;24984;-57
2021/07/04 09:03:43;;;;;;;5.72;5.40;;;;;;;;;;5086004;28;24482;-57
2021/07/04 09:06:09;;;;;;;6.32;5.93;;;;;;;;;;5085416;28;24517;-57
2021/07/04 09:08:34;;;;;;;6.30;5.90;;;;;;;;;;5077372;28;24517;-58
2021/07/04 09:11:17;;;;;;;5.82;5.43;;;;;;;;;;5066521;28;24558;-57
2021/07/04 09:13:43;;;;;;;6.10;5.70;;;;;;;;;;5066072;28;24466;-58
2021/07/04 09:16:20;;;;;;;6.10;5.70;;;;;;;;;;5066568;28;24402;-58
2021/07/04 09:19:05;;;;;;;5.28;4.97;;;;;;;;;;5067258;28;24402;-58
2021/07/04 09:21:30;;;;;;;4.70;4.40;;;;;;;;;;5064846;28;24414;-57
2021/07/04 09:23:56;;;;;;;5.10;4.80;;;;;;;;;;5065581;28;24383;-58
2021/07/04 09:26:37;;;;;;;5.20;4.80;;;;;;;;;;5066780;28;24445;-57
2021/07/04 09:29:02;;;;;;;4.53;4.22;;;;;;;;;;5070264;28;24449;-57
2021/07/04 09:31:28;;;;;;;4.90;4.50;;;;;;;;;;5084389;28;24515;-58
2021/07/04 09:34:01;;;;;;;4.83;4.53;;;;;;;;;;5086563;28;24398;-58
2021/07/04 09:36:26;;;;;;;4.47;4.18;;;;;;;;;;5086187;28;24426;-58
2021/07/04 09:38:52;;;;;;;4.82;4.53;;;;;;;;;;5074315;28;24480;-58
2021/07/04 09:41:17;;;;;;;4.63;4.23;;;;;;;;;;5087069;28;24485;-58
2021/07/04 09:43:42;;;;;;;4.13;3.83;;;;;;;;;;5090029;28;24394;-58
2021/07/04 09:46:09;;;;;;;4.90;4.60;;;;;;;;;;5088127;28;24991;-58
2021/07/04 09:48:35;;;;;;;4.90;4.60;;;;;;;;;;5074427;28;24421;-58
2021/07/04 09:51:11;;;;;;;4.77;4.37;;;;;;;;;;5088195;28;25233;-58
2021/07/04 09:53:40;;;;;;;4.60;4.30;;;;;;;;;;5089985;28;24509;-58
2021/07/04 09:56:15;;;;;;;4.60;4.30;;;;;;;;;;5081170;28;24488;-58
2021/07/04 09:58:41;;;;;;;4.90;4.60;;;;;;;;;;5070626;28;24884;-59
2021/07/04 10:01:07;;;;;;;4.50;4.10;;;;;;;;;;5072501;28;24407;-58
2021/07/04 10:03:36;;;;;;;4.13;3.92;;;;;;;;;;5075334;28;24490;-59
2021/07/04 10:06:03;;;;;;;4.82;4.53;;;;;;;;;;5080237;28;24418;-58
2021/07/04 10:08:33;;;;;;;4.20;3.90;;;;;;;;;;5076468;28;24407;-58
2021/07/04 10:10:59;;;;;;;4.40;4.00;;;;;;;;;;5074940;28;24505;-58
2021/07/04 10:13:24;;;;;;;4.47;4.17;;;;;;;;;;5074262;28;25354;-58
2021/07/04 10:15:50;;;;;;;3.97;3.77;;;;;;;;;;5081313;28;24475;-58
2021/07/04 10:18:16;;;;;;;4.50;4.20;;;;;;;;;;5070067;28;24451;-58
2021/07/04 10:20:43;;;;;;;4.63;4.32;;;;;;;;;;5090957;28;24902;-58
2021/07/04 10:23:09;;;;;;;4.40;4.10;;;;;;;;;;5085846;28;25111;-58
2021/07/04 10:25:35;;;;;;;4.90;4.60;;;;;;;;;;5074800;28;24509;-58
2021/07/04 10:28:00;;;;;;;4.40;4.10;;;;;;;;;;5078376;28;24554;-58
2021/07/04 10:30:25;;;;;;;5.07;4.60;;;;;;;;;;5074061;28;24425;-58
2021/07/04 10:33:09;;;;;;;4.43;4.03;;;;;;;;;;5071153;28;24850;-58
2021/07/04 10:35:34;;;;;;;4.35;4.05;;;;;;;;;;5074439;28;24947;-58
2021/07/04 10:38:20;;;;;;;4.50;4.20;;;;;;;;;;5076433;28;24426;-58
2021/07/04 10:40:45;;;;;;;4.53;4.22;;;;;;;;;;5072102;28;24423;-59
2021/07/04 10:43:30;;;;;;;4.70;4.40;;;;;;;;;;5072774;28;24410;-59
2021/07/04 10:45:55;;;;;;;4.80;4.50;;;;;;;;;;5077086;28;24446;-57
2021/07/04 10:48:25;;;;;;;4.77;4.47;;;;;;;;;;5078889;28;24452;-58
2021/07/04 10:51:09;;;;;;;4.30;4.00;;;;;;;;;;5075209;28;24510;-58
2021/07/04 10:54:00;;;;;;;4.90;4.55;;;;;;;;;;5081103;28;24502;-57
2021/07/04 10:56:34;;;;;;;6.32;5.82;;;;;;;;;;5075788;28;25079;-58
2021/07/04 10:59:01;;;;;;;4.97;4.68;;;;;;;;;;5068538;28;24398;-57
2021/07/04 11:01:45;;;;;;;5.10;4.80;;;;;;;;;;5081138;28;25024;-56
2021/07/04 11:04:29;;;;;;;4.70;4.40;;;;;;;;;;5086896;28;24418;-57
2021/07/04 11:06:54;;;;;;;4.97;4.68;;;;;;;;;;5078622;28;24418;-58
2021/07/04 11:09:20;;;;;;;6.10;5.60;;;;;;;;;;5067879;28;24410;-57
2021/07/04 11:11:45;;;;;;;5.37;4.97;;;;;;;;;;5076779;28;24403;-57
2021/07/04 11:14:10;;;;;;;4.80;4.50;;;;;;;;;;5078561;28;25048;-57
2021/07/04 11:16:35;;;;;;;4.82;4.53;;;;;;;;;;5071783;28;24421;-57
2021/07/04 11:19:08;;;;;;;4.70;4.40;;;;;;;;;;5086571;28;24502;-57
2021/07/04 11:21:47;;;;;;;5.00;4.70;;;;;;;;;;5082795;28;24398;-57
2021/07/04 11:24:14;;;;;;;4.90;4.60;;;;;;;;;;5068872;28;24619;-57
2021/07/04 11:26:39;;;;;;;4.90;4.60;;;;;;;;;;5067996;28;24468;-57
2021/07/04 11:29:10;;;;;;;4.78;4.47;;;;;;;;;;5075294;28;24406;-57
2021/07/04 11:31:35;;;;;;;5.32;4.93;;;;;;;;;;5069137;28;24749;-57
2021/07/04 11:34:04;;;;;;;5.10;4.70;;;;;;;;;;5065290;28;24959;-57
2021/07/04 11:36:30;;;;;;;5.05;4.70;;;;;;;;;;5078511;28;24671;-57
2021/07/04 11:39:01;;;;;;;4.70;4.40;;;;;;;;;;5091619;28;24611;-57
2021/07/04 11:41:28;;;;;;;4.50;4.20;;;;;;;;;;5078778;28;24416;-57
2021/07/04 11:43:56;;;;;;;5.32;4.93;;;;;;;;;;5096790;28;24768;-57
2021/07/04 11:46:23;;;;;;;4.80;4.50;;;;;;;;;;5089258;28;24494;-57
2021/07/04 11:48:51;;;;;;;4.90;4.50;;;;;;;;;;5078709;28;24410;-57
2021/07/04 11:51:25;;;;;;;4.70;4.30;;;;;;;;;;5090328;28;24971;-58
2021/07/04 11:53:51;;;;;;;5.07;4.78;;;;;;;;;;5068029;28;24967;-58
2021/07/04 11:56:16;;;;;;;4.63;4.32;;;;;;;;;;5067179;28;24459;-57
2021/07/04 11:58:42;;;;;;;4.40;4.10;;;;;;;;;;5067477;28;25262;-58
2021/07/04 12:01:21;;;;;;;5.10;4.80;;;;;;;;;;5074528;28;24414;-57
2021/07/04 12:03:49;;;;;;;4.93;4.63;;;;;;;;;;5086290;28;25045;-58
2021/07/04 12:06:14;;;;;;;4.70;4.40;;;;;;;;;;5087722;28;24485;-58
2021/07/04 12:08:53;;;;;;;5.10;4.80;;;;;;;;;;5087964;28;25061;-59
2021/07/04 12:11:19;;;;;;;5.20;4.80;;;;;;;;;;5085929;28;24407;-58
2021/07/04 12:13:46;;;;;;;4.60;4.30;;;;;;;;;;5086708;28;25223;-58
2021/07/04 12:16:15;;;;;;;5.25;4.90;;;;;;;;;;5067961;28;24444;-59
2021/07/04 12:18:40;;;;;;;4.47;4.18;;;;;;;;;;5081759;28;24433;-58
2021/07/04 12:21:06;;;;;;;4.90;4.60;;;;;;;;;;5068249;28;24413;-58
2021/07/04 12:23:31;;;;;;;5.20;4.80;;;;;;;;;;5067181;28;24417;-58
2021/07/04 12:26:04;;;;;;;4.90;4.60;;;;;;;;;;5067984;28;24952;-59
2021/07/04 12:28:30;;;;;;;4.90;4.60;;;;;;;;;;5066867;28;24419;-58
2021/07/04 12:30:56;;;;;;;5.00;4.70;;;;;;;;;;5066394;28;24448;-60
2021/07/04 12:33:26;;;;;;;5.75;5.35;;;;;;;;;;5066894;28;24423;-58
2021/07/04 12:35:55;;;;;;;5.30;4.90;;;;;;;;;;5072301;28;24430;-57
2021/07/04 12:38:20;;;;;;;4.80;4.50;;;;;;;;;;5071742;28;24528;-58
2021/07/04 12:40:59;;;;;;;4.50;4.25;;;;;;;;;;5065454;28;24605;-58
2021/07/04 12:43:33;;;;;;;4.95;4.55;;;;;;;;;;5073308;28;24414;-58
2021/07/04 12:45:58;;;;;;;5.00;4.70;;;;;;;;;;5077891;28;24527;-58
2021/07/04 12:48:24;;;;;;;5.30;5.00;;;;;;;;;;5087416;28;24991;-58
2021/07/04 12:50:54;;;;;;;4.85;4.55;;;;;;;;;;5082194;28;24453;-57
2021/07/04 12:53:21;;;;;;;4.90;4.60;;;;;;;;;;5064396;28;24502;-58
2021/07/04 12:55:48;;;;;;;4.88;4.57;;;;;;;;;;5068419;28;24445;-57
2021/07/04 12:58:27;;;;;;;5.22;4.90;;;;;;;;;;5075675;28;24418;-58
2021/07/04 13:00:53;;;;;;;5.25;4.95;;;;;;;;;;5066256;28;24425;-59
2021/07/04 13:03:38;;;;;;;5.38;4.97;;;;;;;;;;5077254;28;24978;-57
2021/07/04 13:06:03;;;;;;;5.20;4.90;;;;;;;;;;5080181;28;24418;-57
2021/07/04 13:08:28;;;;;;;5.20;4.80;;;;;;;;;;5076707;28;24507;-57
2021/07/04 13:10:53;;;;;;;5.00;4.70;;;;;;;;;;5065862;28;24476;-57
2021/07/04 13:13:19;;;;;;;5.10;4.80;;;;;;;;;;5067770;28;24494;-57
2021/07/04 13:15:44;;;;;;;4.97;4.67;;;;;;;;;;5075166;28;24510;-57
2021/07/04 13:18:23;;;;;;;5.30;5.00;;;;;;;;;;5073431;28;24781;-57
2021/07/04 13:20:48;;;;;;;5.30;4.90;;;;;;;;;;5075518;28;24505;-58
2021/07/04 13:23:16;;;;;;;4.80;4.50;;;;;;;;;;5080075;28;24810;-59
2021/07/04 13:25:43;;;;;;;4.80;4.50;;;;;;;;;;5081196;28;24502;-58
2021/07/04 13:28:11;;;;;;;5.60;5.20;;;;;;;;;;5062825;28;24443;-58
2021/07/04 13:30:45;;;;;;;5.43;5.03;;;;;;;;;;5066836;28;24438;-58
2021/07/04 13:33:11;;;;;;;5.30;5.00;;;;;;;;;;5066210;28;24460;-59
2021/07/04 13:35:43;;;;;;;5.28;4.97;;;;;;;;;;5073870;28;24414;-58
2021/07/04 13:38:15;;;;;;;5.20;4.90;;;;;;;;;;5067397;28;24437;-59
2021/07/04 13:40:41;;;;;;;5.13;4.82;;;;;;;;;;5066946;28;24403;-59
2021/07/04 13:43:07;;;;;;;5.20;4.80;;;;;;;;;;5066337;28;24476;-58
2021/07/04 13:45:39;;;;;;;4.50;4.20;;;;;;;;;;5074430;28;24484;-59
2021/07/04 13:48:15;;;;;;;4.80;4.50;;;;;;;;;;5071445;28;24421;-58
2021/07/04 13:50:41;;;;;;;4.70;4.40;;;;;;;;;;5081993;28;24501;-58
2021/07/04 13:53:07;;;;;;;4.95;4.65;;;;;;;;;;5066906;28;25010;-58
2021/07/04 13:55:32;;;;;;;5.00;4.70;;;;;;;;;;5072830;28;24439;-59
2021/07/04 13:57:57;;;;;;;5.20;4.83;;;;;;;;;;5082221;28;24476;-60
2021/07/04 14:00:22;;;;;;;5.20;4.90;;;;;;;;;;5070484;28;24819;-58
2021/07/04 14:02:48;;;;;;;4.63;4.32;;;;;;;;;;5065741;28;24513;-58
2021/07/04 14:05:13;;;;;;;5.03;4.73;;;;;;;;;;5068262;28;25101;-58
2021/07/04 14:07:39;;;;;;;5.00;4.70;;;;;;;;;;5069984;28;24407;-59
2021/07/04 14:10:05;;;;;;;4.70;4.40;;;;;;;;;;5075085;28;24458;-58
2021/07/04 14:12:30;;;;;;;5.53;5.13;;;;;;;;;;5065403;28;24422;-58
2021/07/04 14:14:55;;;;;;;5.40;5.10;;;;;;;;;;5071626;28;24415;-58
2021/07/04 14:17:20;;;;;;;4.30;4.10;;;;;;;;;;5074563;28;24472;-57
2021/07/04 14:19:49;;;;;;;5.53;4.40;;;;;;;;;;5074812;28;24414;-57
2021/07/04 14:22:14;;;;;;;4.70;4.40;;;;;;;;;;5077752;28;24411;-58
2021/07/04 14:24:39;;;;;;;4.20;4.00;;;;;;;;;;5065734;28;24429;-58
2021/07/04 14:27:05;;;;;;;4.80;4.50;;;;;;;;;;5070818;28;24479;-58
2021/07/04 14:29:30;;;;;;;4.80;4.50;;;;;;;;;;5072456;28;24483;-58
2021/07/04 14:31:56;;;;;;;4.75;4.45;;;;;;;;;;5077313;28;24520;-58
2021/07/04 14:34:21;;;;;;;4.63;4.33;;;;;;;;;;5066720;28;24956;-58